createdAt,value
2018-05-21T00:01:50.304Z,14.20
2018-05-21T00:04:18.590Z,11.43
2018-05-21T00:06:46.875Z,14.90
2018-05-21T00:09:15.198Z,13.83
2018-05-21T00:11:43.478Z,13.67
2018-05-21T00:14:11.749Z,13.40
2018-05-21T00:16:40.125Z,12.83
2018-05-21T00:19:08.311Z,12.43
2018-05-21T00:21:36.606Z,14.43
2018-05-21T00:24:04.892Z,11.73
2018-05-21T00:26:33.166Z,13.13
2018-05-21T00:29:01.784Z,12.80
2018-05-21T00:31:30.093Z,14.40
2018-05-21T00:33:58.382Z,14.23
2018-05-21T00:36:26.659Z,13.90
2018-05-21T00:38:55.258Z,11.00
2018-05-21T00:41:23.861Z,15.30
2018-05-21T00:43:52.149Z,11.40
2018-05-21T00:46:20.426Z,12.30
2018-05-21T00:48:48.699Z,9.40
2018-05-21T00:51:16.978Z,11.37
2018-05-21T00:53:45.274Z,14.57
2018-05-21T00:56:13.558Z,11.57
2018-05-21T00:58:41.834Z,12.23
2018-05-21T01:01:10.129Z,11.23
2018-05-21T01:03:38.406Z,11.67
2018-05-21T01:06:06.710Z,11.57
2018-05-21T01:08:35.020Z,10.80
2018-05-21T01:11:03.298Z,12.60
2018-05-21T01:13:31.590Z,12.80
2018-05-21T01:15:59.862Z,12.93
2018-05-21T01:18:28.161Z,14.17
2018-05-21T01:20:56.441Z,13.13
2018-05-21T01:23:24.711Z,11.20
2018-05-21T01:25:52.998Z,13.73
2018-05-21T01:28:21.274Z,12.63
2018-05-21T01:30:49.905Z,15.03
2018-05-21T01:33:18.196Z,13.43
2018-05-21T01:35:46.479Z,11.50
2018-05-21T01:38:14.758Z,14.43
2018-05-21T01:40:43.038Z,12.07
2018-05-21T01:43:11.346Z,15.60
2018-05-21T01:45:39.617Z,12.40
2018-05-21T01:48:07.905Z,10.87
2018-05-21T01:50:36.174Z,11.83
2018-05-21T01:53:04.449Z,11.40
2018-05-21T01:55:32.741Z,14.50
2018-05-21T01:58:01.022Z,12.17
2018-05-21T02:00:29.311Z,15.30
2018-05-21T02:02:57.598Z,12.10
2018-05-21T02:05:25.878Z,16.43
2018-05-21T02:07:54.174Z,13.67
2018-05-21T02:10:22.462Z,14.50
2018-05-21T02:12:50.739Z,13.17
2018-05-21T02:15:19.010Z,12.43
2018-05-21T02:17:47.297Z,12.83
2018-05-21T02:20:15.569Z,13.13
2018-05-21T02:22:43.878Z,11.70
2018-05-21T02:25:12.165Z,12.30
2018-05-21T02:27:40.438Z,12.20
2018-05-21T02:30:08.735Z,13.43
2018-05-21T02:32:37.018Z,11.90
2018-05-21T02:35:05.306Z,12.07
2018-05-21T02:37:33.587Z,14.07
2018-05-21T02:40:01.876Z,10.47
2018-05-21T02:42:30.154Z,13.20
2018-05-21T02:44:58.434Z,11.13
2018-05-21T02:47:26.722Z,12.80
2018-05-21T02:49:54.998Z,12.97
2018-05-21T02:52:23.272Z,10.60
2018-05-21T02:54:51.562Z,13.23
2018-05-21T02:57:19.890Z,10.20
2018-05-21T02:59:48.123Z,12.43
2018-05-21T03:02:16.394Z,12.93
2018-05-21T03:04:44.677Z,12.10
2018-05-21T03:07:12.962Z,12.57
2018-05-21T03:09:41.250Z,13.33
2018-05-21T03:12:09.554Z,17.13
2018-05-21T03:14:37.824Z,11.97
2018-05-21T03:17:06.102Z,15.57
2018-05-21T03:19:34.394Z,12.87
2018-05-21T03:22:02.718Z,14.07
2018-05-21T03:24:31.021Z,13.53
2018-05-21T03:26:59.299Z,11.73
2018-05-21T03:29:27.581Z,12.60
2018-05-21T03:31:55.870Z,10.67
2018-05-21T03:34:24.144Z,13.60
2018-05-21T03:36:52.453Z,10.07
2018-05-21T03:39:20.730Z,12.57
2018-05-21T03:41:49.014Z,14.80
2018-05-21T03:44:17.322Z,11.67
2018-05-21T03:46:46.002Z,12.73
2018-05-21T03:49:14.254Z,11.03
2018-05-21T03:51:42.529Z,10.40
2018-05-21T03:54:10.807Z,10.03
2018-05-21T03:56:39.092Z,12.03
2018-05-21T03:59:19.102Z,13.23
2018-05-21T04:01:59.170Z,11.40
2018-05-21T04:04:27.540Z,11.30
2018-05-21T04:06:55.737Z,12.70
2018-05-21T04:09:24.027Z,11.27
2018-05-21T04:11:52.361Z,10.13
2018-05-21T04:14:21.882Z,9.10
2018-05-21T04:16:50.152Z,11.67
2018-05-21T04:19:18.440Z,11.63
2018-05-21T04:21:46.733Z,10.77
2018-05-21T04:24:15.002Z,10.27
2018-05-21T04:26:43.290Z,10.53
2018-05-21T04:29:11.570Z,13.23
2018-05-21T04:31:39.865Z,11.57
2018-05-21T04:34:08.138Z,11.57
2018-05-21T04:36:36.423Z,14.27
2018-05-21T04:39:05.346Z,12.73
2018-05-21T04:41:33.621Z,13.03
2018-05-21T04:44:01.899Z,12.60
2018-05-21T04:46:30.206Z,10.07
2018-05-21T04:48:58.482Z,11.07
2018-05-21T04:51:26.750Z,10.70
2018-05-21T04:53:55.042Z,12.77
2018-05-21T04:56:23.766Z,11.40
2018-05-21T04:58:52.058Z,13.57
2018-05-21T05:01:20.340Z,12.07
2018-05-21T05:03:48.622Z,12.20
2018-05-21T05:06:16.917Z,11.17
2018-05-21T05:08:45.193Z,14.27
2018-05-21T05:11:13.486Z,12.57
2018-05-21T05:13:41.759Z,12.53
2018-05-21T05:16:10.056Z,10.30
2018-05-21T05:18:38.334Z,11.93
2018-05-21T05:21:06.651Z,11.47
2018-05-21T05:23:34.910Z,12.10
2018-05-21T05:26:03.194Z,13.10
2018-05-21T05:28:31.478Z,14.07
2018-05-21T05:30:59.785Z,13.37
2018-05-21T05:33:28.069Z,15.17
2018-05-21T05:35:56.392Z,14.00
2018-05-21T05:38:24.650Z,13.50
2018-05-21T05:40:52.933Z,12.37
2018-05-21T05:43:21.209Z,12.43
2018-05-21T05:45:49.504Z,13.67
2018-05-21T05:48:17.769Z,13.03
2018-05-21T05:50:46.038Z,13.57
2018-05-21T05:53:14.329Z,11.40
2018-05-21T05:55:42.610Z,11.90
2018-05-21T05:58:10.898Z,11.97
2018-05-21T06:00:39.186Z,10.33
2018-05-21T06:03:07.469Z,9.13
2018-05-21T06:05:35.742Z,6.57
2018-05-21T06:08:04.016Z,7.57
2018-05-21T06:10:32.295Z,7.30
2018-05-21T06:13:00.565Z,8.47
2018-05-21T06:15:28.967Z,9.50
2018-05-21T06:17:57.261Z,7.17
2018-05-21T06:20:25.522Z,8.70
2018-05-21T06:22:53.826Z,8.00
2018-05-21T06:25:22.091Z,7.20
2018-05-21T06:27:50.361Z,8.47
2018-05-21T06:30:18.642Z,7.10
2018-05-21T06:32:46.913Z,9.17
2018-05-21T06:35:15.478Z,8.57
2018-05-21T06:37:43.746Z,8.67
2018-05-21T06:40:12.954Z,6.70
2018-05-21T06:42:41.230Z,9.00
2018-05-21T06:45:09.512Z,8.23
2018-05-21T06:47:37.808Z,8.10
2018-05-21T06:50:06.078Z,6.37
2018-05-21T06:52:34.348Z,6.70
2018-05-21T06:55:02.619Z,7.03
2018-05-21T06:57:30.899Z,6.33
2018-05-21T06:59:59.979Z,5.40
2018-05-21T07:02:28.271Z,11.17
2018-05-21T07:04:56.548Z,8.07
2018-05-21T07:07:24.813Z,5.70
2018-05-21T07:09:53.090Z,6.13
2018-05-21T07:12:21.359Z,7.43
2018-05-21T07:14:49.625Z,9.17
2018-05-21T07:17:17.913Z,10.23
2018-05-21T07:19:46.182Z,7.47
2018-05-21T07:22:14.522Z,7.57
2018-05-21T07:24:48.377Z,7.80
2018-05-21T07:27:16.674Z,6.03
2018-05-21T07:29:44.961Z,6.07
2018-05-21T07:32:13.239Z,5.17
2018-05-21T07:34:41.510Z,8.23
2018-05-21T07:37:09.865Z,6.33
2018-05-21T07:39:38.126Z,8.77
2018-05-21T07:42:06.476Z,6.80
2018-05-21T07:44:34.748Z,8.83
2018-05-21T07:47:03.060Z,6.30
2018-05-21T07:49:31.338Z,7.53
2018-05-21T07:51:59.624Z,8.00
2018-05-21T07:54:27.894Z,10.10
2018-05-21T07:56:56.491Z,6.83
2018-05-21T07:59:24.777Z,8.47
2018-05-21T08:01:53.957Z,9.23
2018-05-21T08:04:22.249Z,8.77
2018-05-21T08:06:51.501Z,6.07
2018-05-21T08:09:19.758Z,6.50
2018-05-21T08:11:48.030Z,6.70
2018-05-21T08:14:16.315Z,6.57
2018-05-21T08:16:44.587Z,8.50
2018-05-21T08:19:12.854Z,6.50
2018-05-21T08:21:41.138Z,8.00
2018-05-21T08:24:09.430Z,8.60
2018-05-21T08:26:39.135Z,8.70
2018-05-21T08:29:07.411Z,7.13
2018-05-21T08:31:35.733Z,9.70
2018-05-21T08:34:04.014Z,6.93
2018-05-21T08:36:32.290Z,6.87
2018-05-21T08:39:00.594Z,7.53
2018-05-21T08:41:29.150Z,5.00
2018-05-21T08:43:57.450Z,7.83
2018-05-21T08:46:25.730Z,7.50
2018-05-21T08:48:54.067Z,10.03
2018-05-21T08:51:22.311Z,10.07
2018-05-21T08:53:50.594Z,6.23
2018-05-21T08:56:18.869Z,6.83
2018-05-21T08:58:47.213Z,9.63
2018-05-21T09:01:15.427Z,6.67
2018-05-21T09:03:43.702Z,7.77
2018-05-21T09:06:12.018Z,6.93
2018-05-21T09:08:40.292Z,7.77
2018-05-21T09:11:08.602Z,7.37
2018-05-21T09:13:36.866Z,8.07
2018-05-21T09:16:05.160Z,8.37
2018-05-21T09:18:33.768Z,5.90
2018-05-21T09:21:02.754Z,6.60
2018-05-21T09:23:31.094Z,8.10
2018-05-21T09:25:59.458Z,8.80
2018-05-21T09:28:27.647Z,5.77
2018-05-21T09:30:56.177Z,7.50
2018-05-21T09:33:24.454Z,7.53
2018-05-21T09:35:52.731Z,8.20
2018-05-21T09:38:20.995Z,7.77
2018-05-21T09:40:49.276Z,7.00
2018-05-21T09:43:17.626Z,7.17
2018-05-21T09:45:45.918Z,9.00
2018-05-21T09:48:14.207Z,6.90
2018-05-21T09:50:42.475Z,5.57
2018-05-21T09:53:10.750Z,10.27
2018-05-21T09:55:39.031Z,6.27
2018-05-21T09:58:07.315Z,9.30
2018-05-21T10:00:35.581Z,7.87
2018-05-21T10:03:03.875Z,7.30
2018-05-21T10:05:32.290Z,8.30
2018-05-21T10:08:00.662Z,8.47
2018-05-21T10:10:28.938Z,7.50
2018-05-21T10:12:57.227Z,6.67
2018-05-21T10:15:25.495Z,6.23
2018-05-21T10:17:53.790Z,8.10
2018-05-21T10:20:22.078Z,8.23
2018-05-21T10:22:50.347Z,5.90
2018-05-21T10:25:18.640Z,6.33
2018-05-21T10:27:46.918Z,5.60
2018-05-21T10:30:15.490Z,6.30
2018-05-21T10:32:43.798Z,7.70
2018-05-21T10:35:12.180Z,5.93
2018-05-21T10:37:40.467Z,6.40
2018-05-21T10:40:08.734Z,7.77
2018-05-21T10:42:37.132Z,6.47
2018-05-21T10:45:05.479Z,5.33
2018-05-21T10:47:33.767Z,7.83
2018-05-21T10:50:02.694Z,5.57
2018-05-21T10:52:31.208Z,6.30
2018-05-21T10:55:00.307Z,6.27
2018-05-21T10:57:28.614Z,5.67
2018-05-21T10:59:56.868Z,6.93
2018-05-21T11:02:25.549Z,7.03
2018-05-21T11:04:54.775Z,8.17
2018-05-21T11:07:23.046Z,6.77
2018-05-21T11:09:51.486Z,5.70
2018-05-21T11:12:19.882Z,5.93
2018-05-21T11:14:48.103Z,10.13
2018-05-21T11:17:16.400Z,5.13
2018-05-21T11:19:44.681Z,6.40
2018-05-21T11:22:12.958Z,5.73
2018-05-21T11:24:41.296Z,5.03
2018-05-21T11:27:09.510Z,7.63
2018-05-21T11:29:38.540Z,5.97
2018-05-21T11:32:06.813Z,4.83
2018-05-21T11:34:35.098Z,5.00
2018-05-21T11:37:03.376Z,6.43
2018-05-21T11:39:31.926Z,5.67
2018-05-21T11:42:00.202Z,6.50
2018-05-21T11:44:28.475Z,5.47
2018-05-21T11:46:56.759Z,7.77
2018-05-21T11:49:25.046Z,6.40
2018-05-21T11:51:53.353Z,6.17
2018-05-21T11:54:21.775Z,7.23
2018-05-21T11:56:50.058Z,5.53
2018-05-21T11:59:18.422Z,7.17
2018-05-21T12:01:46.680Z,7.70
2018-05-21T12:04:15.121Z,5.57
2018-05-21T12:06:43.417Z,6.13
2018-05-21T12:09:12.636Z,7.47
2018-05-21T12:11:40.918Z,6.13
2018-05-21T12:14:09.215Z,6.27
2018-05-21T12:16:37.499Z,10.77
2018-05-21T12:19:05.770Z,8.07
2018-05-21T12:21:34.054Z,6.10
2018-05-21T12:24:02.330Z,6.83
2018-05-21T12:26:30.646Z,6.77
2018-05-21T12:28:58.921Z,4.63
2018-05-21T12:31:27.210Z,6.63
2018-05-21T12:33:55.477Z,6.77
2018-05-21T12:36:23.761Z,8.77
2018-05-21T12:38:52.042Z,6.50
2018-05-21T12:41:20.346Z,5.77
2018-05-21T12:43:48.627Z,5.00
2018-05-21T12:46:16.906Z,5.73
2018-05-21T12:48:45.234Z,6.97
2018-05-21T12:51:13.506Z,10.87
2018-05-21T12:53:41.792Z,5.63
2018-05-21T12:56:10.073Z,6.07
2018-05-21T12:58:38.342Z,7.57
2018-05-21T13:01:06.631Z,8.47
2018-05-21T13:03:34.898Z,8.03
2018-05-21T13:06:03.202Z,7.60
2018-05-21T13:08:31.472Z,5.57
2018-05-21T13:10:59.751Z,5.03
2018-05-21T13:13:28.038Z,8.60
2018-05-21T13:15:56.298Z,6.23
2018-05-21T13:18:24.588Z,5.97
2018-05-21T13:20:52.866Z,5.70
2018-05-21T13:23:21.158Z,8.37
2018-05-21T13:25:49.429Z,6.47
2018-05-21T13:28:17.695Z,5.90
2018-05-21T13:30:45.973Z,7.13
2018-05-21T13:33:14.260Z,5.77
2018-05-21T13:35:42.534Z,6.47
2018-05-21T13:38:10.812Z,11.10
2018-05-21T13:40:39.415Z,6.07
2018-05-21T13:43:07.695Z,4.93
2018-05-21T13:45:35.958Z,7.13
2018-05-21T13:48:04.243Z,6.30
2018-05-21T13:50:32.981Z,6.83
2018-05-21T13:53:01.247Z,4.70
2018-05-21T13:55:29.534Z,6.30
2018-05-21T13:57:57.814Z,4.57
2018-05-21T14:00:26.097Z,5.37
2018-05-21T14:02:54.367Z,7.50
2018-05-21T14:05:22.682Z,7.80
2018-05-21T14:07:50.954Z,6.17
2018-05-21T14:10:19.242Z,6.10
2018-05-21T14:12:47.519Z,4.90
2018-05-21T14:15:15.810Z,7.33
2018-05-21T14:17:44.073Z,4.90
2018-05-21T14:20:12.452Z,5.73
2018-05-21T14:22:40.699Z,5.57
2018-05-21T14:25:09.009Z,7.70
2018-05-21T14:27:37.263Z,6.30
2018-05-21T14:30:05.583Z,6.10
2018-05-21T14:32:34.191Z,8.43
2018-05-21T14:35:02.463Z,5.23
2018-05-21T14:37:30.738Z,6.40
2018-05-21T14:39:59.022Z,6.13
2018-05-21T14:42:27.364Z,6.90
2018-05-21T14:44:55.646Z,6.70
2018-05-21T14:47:23.919Z,7.13
2018-05-21T14:49:52.216Z,5.50
2018-05-21T14:52:20.498Z,5.63
2018-05-21T14:54:48.779Z,5.67
2018-05-21T14:57:17.056Z,8.90
2018-05-21T14:59:45.720Z,6.83
2018-05-21T15:02:13.987Z,6.03
2018-05-21T15:04:42.266Z,5.63
2018-05-21T15:07:10.565Z,6.10
2018-05-21T15:09:38.856Z,6.37
2018-05-21T15:12:07.147Z,4.87
2018-05-21T15:14:35.574Z,7.13
2018-05-21T15:17:03.786Z,4.87
2018-05-21T15:19:32.271Z,6.13
2018-05-21T15:22:00.541Z,5.10
2018-05-21T15:24:28.840Z,6.17
2018-05-21T15:26:57.138Z,6.40
2018-05-21T15:29:25.489Z,6.70
2018-05-21T15:31:53.760Z,6.07
2018-05-21T15:34:22.052Z,4.80
2018-05-21T15:36:50.314Z,6.77
2018-05-21T15:39:18.607Z,7.30
2018-05-21T15:41:46.877Z,9.20
2018-05-21T15:44:15.156Z,5.90
2018-05-21T15:46:43.445Z,5.93
2018-05-21T15:49:11.704Z,6.93
2018-05-21T15:51:39.987Z,5.37
2018-05-21T15:54:08.284Z,5.37
2018-05-21T15:56:36.580Z,5.00
2018-05-21T15:59:04.852Z,6.87
2018-05-21T16:01:33.154Z,10.27
2018-05-21T16:04:01.446Z,5.67
2018-05-21T16:06:29.736Z,7.37
2018-05-21T16:08:58.050Z,6.03
2018-05-21T16:11:26.338Z,5.70
2018-05-21T16:13:54.626Z,7.17
2018-05-21T16:16:22.920Z,5.63
2018-05-21T16:18:51.174Z,6.03
2018-05-21T16:21:19.472Z,5.20
2018-05-21T16:23:47.754Z,9.07
2018-05-21T16:26:16.057Z,6.90
2018-05-21T16:28:44.339Z,6.50
2018-05-21T16:31:12.618Z,5.77
2018-05-21T16:33:40.895Z,4.97
2018-05-21T16:36:09.198Z,5.67
2018-05-21T16:38:37.471Z,6.40
2018-05-21T16:41:05.742Z,5.17
2018-05-21T16:43:34.150Z,6.20
2018-05-21T16:46:02.433Z,4.50
2018-05-21T16:48:30.756Z,7.97
2018-05-21T16:50:59.086Z,5.63
2018-05-21T16:53:27.416Z,6.03
2018-05-21T16:55:55.692Z,5.03
2018-05-21T16:58:23.957Z,5.57
2018-05-21T17:00:52.238Z,5.23
2018-05-21T17:03:20.518Z,5.43
2018-05-21T17:05:48.798Z,6.17
2018-05-21T17:08:17.082Z,5.57
2018-05-21T17:10:45.429Z,4.87
2018-05-21T17:13:13.704Z,6.17
2018-05-21T17:15:41.984Z,4.90
2018-05-21T17:18:10.402Z,4.93
2018-05-21T17:20:38.671Z,5.47
2018-05-21T17:23:07.098Z,7.33
2018-05-21T17:25:35.591Z,5.10
2018-05-21T17:28:03.892Z,6.37
2018-05-21T17:30:32.506Z,8.07
2018-05-21T17:33:00.755Z,17.50
2018-05-21T17:35:29.193Z,6.30
2018-05-21T17:37:57.416Z,10.73
2018-05-21T17:40:25.705Z,8.07
2018-05-21T17:42:53.973Z,5.10
2018-05-21T17:45:22.262Z,8.37
2018-05-21T17:47:50.542Z,6.83
2018-05-21T17:50:18.806Z,5.50
2018-05-21T17:52:47.086Z,4.80
2018-05-21T17:55:15.355Z,8.30
2018-05-21T17:57:43.644Z,7.30
2018-05-21T18:00:11.919Z,6.10
2018-05-21T18:02:40.516Z,5.87
2018-05-21T18:05:08.786Z,9.93
2018-05-21T18:07:37.058Z,5.80
2018-05-21T18:10:05.366Z,9.00
2018-05-21T18:12:33.655Z,9.67
2018-05-21T18:15:01.964Z,5.20
2018-05-21T18:17:30.246Z,8.37
2018-05-21T18:19:58.524Z,9.23
2018-05-21T18:22:26.807Z,6.07
2018-05-21T18:24:55.144Z,7.73
2018-05-21T18:27:23.451Z,6.47
2018-05-21T18:29:51.727Z,6.67
2018-05-21T18:32:20.039Z,7.70
2018-05-21T18:34:49.031Z,9.83
2018-05-21T18:37:17.312Z,6.17
2018-05-21T18:39:45.569Z,6.90
2018-05-21T18:42:13.906Z,7.57
2018-05-21T18:44:42.126Z,10.93
2018-05-21T18:47:10.405Z,7.60
2018-05-21T18:49:38.678Z,7.90
2018-05-21T18:52:06.960Z,10.13
2018-05-21T18:54:35.265Z,6.40
2018-05-21T18:57:03.539Z,14.00
2018-05-21T18:59:31.831Z,6.77
2018-05-21T19:02:00.127Z,10.50
2018-05-21T19:04:28.411Z,8.40
2018-05-21T19:06:56.694Z,9.37
2018-05-21T19:09:24.967Z,7.83
2018-05-21T19:11:53.263Z,11.90
2018-05-21T19:14:21.531Z,6.33
2018-05-21T19:16:49.809Z,6.00
2018-05-21T19:19:18.097Z,8.70
2018-05-21T19:21:46.445Z,8.33
2018-05-21T19:24:14.724Z,10.13
2018-05-21T19:26:43.001Z,8.10
2018-05-21T19:29:11.318Z,6.13
2018-05-21T19:31:39.600Z,6.70
2018-05-21T19:34:07.884Z,7.90
2018-05-21T19:36:36.176Z,10.20
2018-05-21T19:39:04.454Z,7.23
2018-05-21T19:41:32.746Z,7.60
2018-05-21T19:44:01.019Z,9.33
2018-05-21T19:46:29.331Z,7.17
2018-05-21T19:48:57.582Z,8.00
2018-05-21T19:51:26.510Z,9.37
2018-05-21T19:53:54.786Z,9.13
2018-05-21T19:56:23.070Z,8.10
2018-05-21T19:58:51.350Z,7.73
2018-05-21T20:01:19.638Z,8.03
2018-05-21T20:03:47.941Z,10.93
2018-05-21T20:06:16.209Z,9.40
2018-05-21T20:08:44.494Z,8.30
2018-05-21T20:11:12.766Z,7.90
2018-05-21T20:13:41.118Z,10.53
2018-05-21T20:16:09.332Z,6.73
2018-05-21T20:18:37.844Z,7.40
2018-05-21T20:21:06.095Z,9.67
2018-05-21T20:23:34.397Z,8.47
2018-05-21T20:26:02.676Z,7.73
2018-05-21T20:28:30.943Z,7.53
2018-05-21T20:30:59.230Z,6.83
2018-05-21T20:33:27.510Z,12.97
2018-05-21T20:35:56.679Z,9.50
2018-05-21T20:38:24.953Z,7.23
2018-05-21T20:40:53.225Z,9.23
2018-05-21T20:43:21.547Z,7.70
2018-05-21T20:45:49.826Z,10.33
2018-05-21T20:48:19.018Z,12.33
2018-05-21T20:50:47.286Z,9.33
2018-05-21T20:53:15.570Z,9.57
2018-05-21T20:55:43.839Z,9.17
2018-05-21T20:58:12.112Z,9.53
2018-05-21T21:00:40.403Z,9.23
2018-05-21T21:03:08.679Z,6.83
2018-05-21T21:05:37.075Z,8.77
2018-05-21T21:08:05.350Z,10.83
2018-05-21T21:10:34.458Z,10.93
2018-05-21T21:13:02.656Z,8.83
2018-05-21T21:15:30.966Z,10.33
2018-05-21T21:17:59.246Z,7.77
2018-05-21T21:20:27.519Z,11.10
2018-05-21T21:22:55.806Z,9.23
2018-05-21T21:25:24.079Z,10.20
2018-05-21T21:27:52.649Z,7.57
2018-05-21T21:30:20.932Z,9.93
2018-05-21T21:32:49.311Z,7.57
2018-05-21T21:35:17.598Z,8.70
2018-05-21T21:37:45.928Z,9.13
2018-05-21T21:40:14.242Z,8.37
2018-05-21T21:42:42.509Z,8.70
2018-05-21T21:45:10.802Z,8.90
2018-05-21T21:47:39.083Z,12.07
2018-05-21T21:50:07.358Z,10.63
2018-05-21T21:52:35.644Z,8.67
2018-05-21T21:55:03.922Z,12.57
2018-05-21T21:57:32.206Z,8.63
2018-05-21T22:00:00.470Z,9.53
2018-05-21T22:02:28.786Z,8.80
2018-05-21T22:04:57.072Z,9.70
2018-05-21T22:07:25.361Z,10.10
2018-05-21T22:09:53.654Z,10.37
2018-05-21T22:12:21.935Z,9.00
2018-05-21T22:14:50.219Z,8.10
2018-05-21T22:17:18.491Z,11.07
2018-05-21T22:19:46.774Z,7.50
2018-05-21T22:22:15.050Z,10.00
2018-05-21T22:24:43.330Z,8.40
2018-05-21T22:27:11.606Z,7.53
2018-05-21T22:29:39.873Z,6.40
2018-05-21T22:32:08.162Z,7.80
2018-05-21T22:34:36.439Z,6.13
2018-05-21T22:37:06.471Z,7.37
2018-05-21T22:39:34.734Z,6.47
2018-05-21T22:42:03.003Z,8.50
2018-05-21T22:44:31.296Z,7.43
2018-05-21T22:46:59.802Z,6.07
2018-05-21T22:49:28.090Z,5.93
2018-05-21T22:51:56.374Z,5.93
2018-05-21T22:54:35.451Z,7.63
2018-05-21T22:57:03.721Z,7.57
2018-05-21T22:59:32.561Z,6.70
2018-05-21T23:02:00.820Z,12.63
2018-05-21T23:04:29.102Z,8.20
2018-05-21T23:06:57.394Z,8.20
2018-05-21T23:09:25.679Z,8.90
2018-05-21T23:11:53.962Z,10.07
2018-05-21T23:14:22.343Z,6.07
2018-05-21T23:16:50.536Z,8.53
2018-05-21T23:19:18.815Z,9.50
2018-05-21T23:21:47.090Z,6.43
2018-05-21T23:24:15.382Z,6.60
2018-05-21T23:26:44.178Z,7.33
2018-05-21T23:29:12.459Z,7.20
2018-05-21T23:31:40.725Z,9.07
2018-05-21T23:34:09.000Z,6.90
2018-05-21T23:36:37.278Z,7.60
2018-05-21T23:39:05.555Z,7.43
2018-05-21T23:41:33.848Z,6.80
2018-05-21T23:44:02.115Z,7.13
2018-05-21T23:46:30.395Z,6.13
2018-05-21T23:48:58.678Z,7.30
2018-05-21T23:51:26.942Z,6.87
2018-05-21T23:53:56.018Z,6.37
2018-05-21T23:56:24.739Z,7.37
2018-05-21T23:58:53.274Z,8.87
